createdAt,value
2022-08-26T00:01:38.795Z,100.00
2022-08-26T00:04:06.103Z,100.00
2022-08-26T00:06:33.518Z,100.00
2022-08-26T00:09:00.769Z,100.00
2022-08-26T00:11:27.953Z,100.00
2022-08-26T00:13:57.092Z,100.00
2022-08-26T00:16:27.284Z,100.00
2022-08-26T00:18:54.967Z,100.00
2022-08-26T00:21:22.370Z,100.00
2022-08-26T00:23:50.436Z,100.00
2022-08-26T00:26:17.201Z,100.00
2022-08-26T00:28:44.660Z,100.00
2022-08-26T00:31:11.677Z,100.00
2022-08-26T00:33:39.981Z,100.00
2022-08-26T00:36:07.548Z,100.00
2022-08-26T00:38:37.929Z,100.00
2022-08-26T00:41:06.369Z,100.00
2022-08-26T00:43:46.152Z,100.00
2022-08-26T00:46:21.849Z,100.00
2022-08-26T00:48:54.481Z,100.00
2022-08-26T00:51:24.923Z,100.00
2022-08-26T00:54:10.810Z,100.00
2022-08-26T00:56:41.659Z,100.00
2022-08-26T00:59:11.953Z,100.00
2022-08-26T01:01:42.014Z,100.00
2022-08-26T01:04:10.227Z,100.00
2022-08-26T01:06:39.386Z,100.00
2022-08-26T01:09:06.523Z,100.00
2022-08-26T01:11:34.189Z,100.00
2022-08-26T01:14:04.937Z,100.00
2022-08-26T01:16:33.415Z,100.00
2022-08-26T01:19:10.313Z,100.00
2022-08-26T01:21:59.910Z,100.00
2022-08-26T01:24:29.342Z,100.00
2022-08-26T01:27:01.679Z,100.00
2022-08-26T01:29:30.386Z,100.00
2022-08-26T01:31:57.913Z,100.00
2022-08-26T01:34:32.836Z,100.00
2022-08-26T01:37:05.818Z,100.00
2022-08-26T01:39:35.574Z,100.00
2022-08-26T01:42:04.345Z,100.00
2022-08-26T01:45:10.155Z,100.00
2022-08-26T01:47:38.738Z,100.00
2022-08-26T01:50:27.457Z,100.00
2022-08-26T01:52:57.064Z,100.00
2022-08-26T01:55:29.290Z,100.00
2022-08-26T01:58:04.696Z,100.00
2022-08-26T02:00:34.324Z,100.00
2022-08-26T02:03:18.014Z,100.00
2022-08-26T02:05:51.401Z,100.00
2022-08-26T02:08:24.751Z,100.00
2022-08-26T02:10:54.846Z,100.00
2022-08-26T02:13:23.417Z,100.00
2022-08-26T02:15:52.318Z,100.00
2022-08-26T02:18:19.552Z,100.00
2022-08-26T02:20:46.345Z,100.00
2022-08-26T02:23:13.325Z,100.00
2022-08-26T02:26:04.467Z,100.00
2022-08-26T02:28:36.193Z,100.00
2022-08-26T02:31:03.594Z,100.00
2022-08-26T02:33:31.725Z,100.00
2022-08-26T02:35:58.689Z,100.00
2022-08-26T02:38:26.186Z,100.00
2022-08-26T02:40:52.862Z,100.00
2022-08-26T02:43:19.616Z,100.00
2022-08-26T02:46:00.806Z,100.00
2022-08-26T02:48:28.869Z,100.00
2022-08-26T02:50:55.604Z,100.00
2022-08-26T02:53:25.482Z,100.00
2022-08-26T02:55:52.531Z,100.00
2022-08-26T02:58:19.450Z,100.00
2022-08-26T03:00:52.814Z,100.00
2022-08-26T03:03:22.518Z,100.00
2022-08-26T03:05:50.893Z,100.00
2022-08-26T03:08:17.878Z,100.00
2022-08-26T03:10:44.593Z,100.00
2022-08-26T03:13:11.573Z,100.00
2022-08-26T03:15:39.192Z,100.00
2022-08-26T03:18:06.722Z,100.00
2022-08-26T03:20:34.456Z,100.00
2022-08-26T03:23:01.391Z,100.00
2022-08-26T03:25:28.801Z,100.00
2022-08-26T03:27:55.714Z,100.00
2022-08-26T03:30:44.613Z,100.00
2022-08-26T03:33:14.105Z,100.00
2022-08-26T03:35:43.584Z,100.00
2022-08-26T03:38:11.182Z,100.00
2022-08-26T03:40:39.050Z,100.00
2022-08-26T03:43:09.873Z,100.00
2022-08-26T03:45:37.122Z,100.00
2022-08-26T03:48:04.699Z,100.00
2022-08-26T03:50:34.322Z,100.00
2022-08-26T03:53:04.051Z,100.00
2022-08-26T03:55:32.498Z,100.00
2022-08-26T03:58:00.804Z,100.00
2022-08-26T04:00:27.825Z,100.00
2022-08-26T04:02:54.877Z,100.00
2022-08-26T04:05:22.842Z,100.00
2022-08-26T04:07:50.483Z,100.00
2022-08-26T04:10:19.443Z,100.00
2022-08-26T04:12:47.804Z,100.00
2022-08-26T04:15:16.044Z,100.00
2022-08-26T04:17:44.888Z,100.00
2022-08-26T04:20:16.216Z,100.00
2022-08-26T04:22:43.176Z,100.00
2022-08-26T04:25:11.410Z,100.00
2022-08-26T04:27:38.684Z,100.00
2022-08-26T04:30:08.926Z,100.00
2022-08-26T04:32:36.494Z,100.00
2022-08-26T04:35:03.614Z,100.00
2022-08-26T04:37:31.980Z,100.00
2022-08-26T04:39:59.892Z,100.00
2022-08-26T04:42:27.759Z,100.00
2022-08-26T04:44:55.705Z,100.00
2022-08-26T04:47:22.342Z,100.00
2022-08-26T04:49:48.997Z,100.00
2022-08-26T04:52:17.145Z,100.00
2022-08-26T04:54:43.893Z,100.00
2022-08-26T04:57:11.106Z,100.00
2022-08-26T04:59:39.482Z,100.00
2022-08-26T05:02:07.289Z,100.00
2022-08-26T05:04:34.639Z,100.00
2022-08-26T05:07:02.716Z,100.00
2022-08-26T05:09:29.808Z,100.00
2022-08-26T05:11:57.468Z,100.00
2022-08-26T05:14:24.483Z,100.00
2022-08-26T05:16:52.162Z,100.00
2022-08-26T05:19:19.579Z,100.00
2022-08-26T05:21:48.770Z,100.00
2022-08-26T05:24:16.780Z,100.00
2022-08-26T05:26:44.864Z,100.00
2022-08-26T05:29:12.049Z,100.00
2022-08-26T05:31:38.869Z,100.00
2022-08-26T05:34:06.383Z,100.00
2022-08-26T05:36:35.469Z,100.00
2022-08-26T05:39:04.710Z,100.00
2022-08-26T05:41:36.397Z,100.00
2022-08-26T05:44:06.238Z,100.00
2022-08-26T05:46:34.708Z,100.00
2022-08-26T05:49:03.024Z,100.00
2022-08-26T05:51:30.977Z,100.00
2022-08-26T05:53:58.774Z,100.00
2022-08-26T05:56:27.631Z,100.00
2022-08-26T05:58:56.515Z,100.00
2022-08-26T06:01:28.200Z,100.00
2022-08-26T06:03:59.715Z,100.00
2022-08-26T06:06:31.956Z,100.00
2022-08-26T06:09:00.148Z,100.00
2022-08-26T06:11:29.129Z,100.00
2022-08-26T06:14:03.106Z,100.00
2022-08-26T06:16:32.597Z,100.00
2022-08-26T06:19:03.147Z,100.00
2022-08-26T06:21:35.757Z,100.00
2022-08-26T06:24:45.771Z,100.00
2022-08-26T06:27:15.202Z,100.00
2022-08-26T06:29:42.646Z,100.00
2022-08-26T06:32:09.328Z,100.00
2022-08-26T06:34:36.315Z,100.00
2022-08-26T06:37:03.485Z,100.00
2022-08-26T06:39:31.613Z,99.68
2022-08-26T06:42:03.020Z,98.71
2022-08-26T06:44:29.962Z,96.98
2022-08-26T06:46:56.649Z,96.39
2022-08-26T06:49:26.542Z,94.63
2022-08-26T06:51:55.286Z,94.39
2022-08-26T06:54:22.479Z,95.33
2022-08-26T06:56:49.586Z,95.35
2022-08-26T06:59:16.570Z,93.68
2022-08-26T07:01:45.194Z,94.65
2022-08-26T07:04:15.648Z,92.07
2022-08-26T07:06:47.284Z,91.34
2022-08-26T07:09:14.017Z,90.87
2022-08-26T07:11:41.349Z,91.51
2022-08-26T07:14:09.094Z,89.94
2022-08-26T07:16:35.945Z,91.75
2022-08-26T07:19:03.633Z,92.88
2022-08-26T07:21:40.440Z,90.06
2022-08-26T07:24:08.620Z,88.18
2022-08-26T07:26:37.804Z,87.12
2022-08-26T07:29:04.789Z,87.35
2022-08-26T07:31:39.469Z,85.06
2022-08-26T07:34:10.834Z,85.87
2022-08-26T07:36:37.750Z,84.52
2022-08-26T07:39:05.501Z,83.57
2022-08-26T07:41:32.300Z,83.84
2022-08-26T07:43:59.414Z,83.07
2022-08-26T07:46:30.081Z,83.10
2022-08-26T07:48:58.135Z,82.21
2022-08-26T07:51:25.598Z,85.62
2022-08-26T07:53:53.359Z,82.92
2022-08-26T07:56:23.403Z,81.20
2022-08-26T07:58:53.840Z,82.05
2022-08-26T08:01:23.861Z,81.79
2022-08-26T08:03:51.828Z,82.50
2022-08-26T08:06:21.318Z,85.07
2022-08-26T08:08:50.742Z,86.89
2022-08-26T08:11:22.257Z,87.43
2022-08-26T08:13:55.934Z,86.98
2022-08-26T08:16:26.984Z,87.27
2022-08-26T08:18:56.560Z,87.97
2022-08-26T08:21:25.366Z,83.86
2022-08-26T08:23:54.557Z,84.09
2022-08-26T08:26:22.020Z,85.50
2022-08-26T08:28:49.480Z,83.53
2022-08-26T08:31:54.334Z,79.99
2022-08-26T08:34:11.342Z,80.59
2022-08-26T08:36:38.499Z,77.19
2022-08-26T08:39:06.368Z,74.36
2022-08-26T08:42:27.006Z,76.56
2022-08-26T08:44:58.878Z,77.24
2022-08-26T08:47:59.362Z,73.02
2022-08-26T08:50:35.702Z,72.21
2022-08-26T08:53:09.985Z,70.69
2022-08-26T08:55:48.132Z,74.74
2022-08-26T08:58:22.546Z,73.24
2022-08-26T09:01:02.553Z,76.27
2022-08-26T09:03:42.514Z,76.32
2022-08-26T09:06:17.289Z,74.73
2022-08-26T09:08:47.022Z,75.77
2022-08-26T09:11:17.721Z,73.47
2022-08-26T09:13:49.122Z,73.28
2022-08-26T09:16:25.489Z,71.21
2022-08-26T09:19:30.082Z,71.94
2022-08-26T09:21:59.270Z,70.27
2022-08-26T09:24:28.624Z,70.90
2022-08-26T09:26:57.829Z,70.37
2022-08-26T09:29:28.637Z,69.77
2022-08-26T09:32:21.330Z,69.49
2022-08-26T09:35:11.320Z,69.12
2022-08-26T09:40:34.858Z,67.77
2022-08-26T09:43:23.099Z,65.31
2022-08-26T09:45:59.557Z,63.21
2022-08-26T09:48:37.790Z,62.92
2022-08-26T09:51:28.267Z,62.06
2022-08-26T09:54:00.841Z,62.40
2022-08-26T09:56:39.983Z,62.18
2022-08-26T09:59:11.153Z,64.72
2022-08-26T10:01:43.950Z,65.20
2022-08-26T10:04:15.156Z,64.67
2022-08-26T10:06:54.901Z,63.55
2022-08-26T10:09:23.965Z,63.33
2022-08-26T10:11:55.360Z,62.48
2022-08-26T10:14:28.113Z,63.02
2022-08-26T10:17:21.847Z,61.05
2022-08-26T10:19:57.847Z,60.64
2022-08-26T10:22:39.747Z,59.93
2022-08-26T10:25:11.989Z,59.10
2022-08-26T10:28:18.108Z,61.91
2022-08-26T10:30:51.252Z,62.75
2022-08-26T10:33:18.957Z,62.26
2022-08-26T10:35:58.558Z,61.75
2022-08-26T10:38:32.364Z,62.86
2022-08-26T10:41:16.784Z,63.18
2022-08-26T10:43:53.754Z,63.62
2022-08-26T10:46:27.280Z,63.57
2022-08-26T10:48:54.295Z,63.87
2022-08-26T10:51:27.147Z,64.83
2022-08-26T10:54:22.000Z,65.04
2022-08-26T10:56:53.589Z,65.97
2022-08-26T10:59:50.493Z,64.08
2022-08-26T11:02:31.484Z,66.78
2022-08-26T11:05:05.660Z,64.70
2022-08-26T11:07:47.414Z,60.50
2022-08-26T11:10:19.276Z,58.00
2022-08-26T11:12:49.499Z,57.27
2022-08-26T11:15:26.490Z,57.25
2022-08-26T11:17:53.255Z,57.98
2022-08-26T11:20:23.822Z,57.63
2022-08-26T11:22:51.960Z,60.16
2022-08-26T11:25:19.797Z,59.62
2022-08-26T11:27:52.462Z,59.22
2022-08-26T11:30:20.267Z,60.26
2022-08-26T11:32:57.354Z,60.12
2022-08-26T11:35:24.656Z,61.00
2022-08-26T11:37:55.607Z,61.16
2022-08-26T11:40:32.360Z,63.50
2022-08-26T11:43:09.016Z,64.69
2022-08-26T11:45:47.651Z,65.41
2022-08-26T11:48:31.018Z,63.88
2022-08-26T11:50:59.095Z,64.51
2022-08-26T11:53:27.697Z,67.89
2022-08-26T11:55:59.505Z,69.43
2022-08-26T11:58:28.464Z,68.44
2022-08-26T12:01:09.908Z,70.86
2022-08-26T12:03:50.765Z,73.90
2022-08-26T12:06:29.607Z,74.96
2022-08-26T12:09:01.495Z,75.49
2022-08-26T12:11:35.156Z,72.89
2022-08-26T12:14:08.222Z,74.29
2022-08-26T12:16:39.405Z,72.37
2022-08-26T12:19:26.354Z,71.74
2022-08-26T12:22:00.516Z,71.55
2022-08-26T12:24:27.695Z,71.71
2022-08-26T12:27:31.333Z,71.94
2022-08-26T12:30:08.410Z,73.12
2022-08-26T12:32:39.123Z,76.07
2022-08-26T12:35:23.992Z,77.69
2022-08-26T12:37:54.084Z,80.95
2022-08-26T12:40:43.274Z,84.54
2022-08-26T12:43:11.901Z,89.17
2022-08-26T12:46:02.258Z,89.79
2022-08-26T12:48:35.328Z,90.15
2022-08-26T12:51:04.021Z,88.23
2022-08-26T12:53:33.549Z,91.20
2022-08-26T12:56:06.197Z,93.13
2022-08-26T12:58:36.020Z,95.66
2022-08-26T13:01:09.018Z,95.21
2022-08-26T13:03:43.582Z,95.13
2022-08-26T13:06:22.902Z,100.00
2022-08-26T13:09:06.982Z,100.00
2022-08-26T13:12:02.241Z,100.00
2022-08-26T13:14:33.182Z,100.00
2022-08-26T13:17:03.306Z,100.00
2022-08-26T13:19:33.128Z,100.00
2022-08-26T13:22:06.265Z,100.00
2022-08-26T13:24:36.736Z,100.00
2022-08-26T13:27:12.043Z,100.00
2022-08-26T13:29:39.422Z,100.00
2022-08-26T13:32:08.238Z,100.00
2022-08-26T13:34:40.338Z,100.00
2022-08-26T13:37:11.636Z,100.00
2022-08-26T13:39:42.389Z,100.00
2022-08-26T13:42:09.824Z,100.00
2022-08-26T13:44:41.213Z,100.00
2022-08-26T13:47:15.994Z,100.00
2022-08-26T13:49:49.389Z,100.00
2022-08-26T13:52:30.168Z,100.00
2022-08-26T13:55:04.109Z,100.00
2022-08-26T13:57:32.766Z,100.00
2022-08-26T14:00:00.010Z,100.00
2022-08-26T14:02:33.048Z,100.00
2022-08-26T14:05:00.027Z,100.00
2022-08-26T14:07:38.272Z,100.00
2022-08-26T14:10:08.359Z,100.00
2022-08-26T14:12:35.422Z,100.00
2022-08-26T14:15:05.617Z,100.00
2022-08-26T14:17:34.961Z,100.00
2022-08-26T14:20:02.535Z,100.00
2022-08-26T14:22:32.328Z,100.00
2022-08-26T14:25:00.891Z,100.00
2022-08-26T14:27:30.623Z,100.00
2022-08-26T14:29:57.482Z,100.00
2022-08-26T14:32:31.645Z,100.00
2022-08-26T14:34:58.552Z,100.00
2022-08-26T14:37:27.975Z,100.00
2022-08-26T14:39:56.303Z,100.00
2022-08-26T14:42:31.420Z,100.00
2022-08-26T14:45:02.171Z,100.00
2022-08-26T14:47:29.159Z,100.00
2022-08-26T14:49:55.834Z,100.00
2022-08-26T14:52:22.589Z,100.00
2022-08-26T14:54:49.259Z,100.00
2022-08-26T14:57:21.697Z,100.00
2022-08-26T14:59:50.461Z,100.00
2022-08-26T15:02:32.751Z,100.00
2022-08-26T15:05:02.119Z,100.00
2022-08-26T15:07:28.780Z,100.00
2022-08-26T15:09:55.399Z,100.00
2022-08-26T15:12:22.691Z,100.00
2022-08-26T15:14:49.332Z,100.00
2022-08-26T15:17:16.004Z,100.00
2022-08-26T15:19:42.644Z,100.00
2022-08-26T15:22:09.306Z,100.00
2022-08-26T15:24:36.376Z,100.00
2022-08-26T15:27:03.068Z,100.00
2022-08-26T15:29:29.890Z,100.00
2022-08-26T15:31:58.241Z,100.00
2022-08-26T15:34:25.042Z,100.00
2022-08-26T15:36:51.685Z,100.00
2022-08-26T15:39:19.472Z,100.00
2022-08-26T15:41:46.810Z,100.00
2022-08-26T15:44:14.321Z,100.00
2022-08-26T15:46:41.300Z,100.00
2022-08-26T15:49:08.208Z,100.00
2022-08-26T15:51:45.763Z,100.00
2022-08-26T15:54:14.002Z,100.00
2022-08-26T15:56:40.745Z,100.00
2022-08-26T15:59:08.115Z,100.00
2022-08-26T16:01:35.792Z,100.00
2022-08-26T16:04:03.430Z,100.00
2022-08-26T16:06:33.275Z,100.00
2022-08-26T16:09:00.235Z,100.00
2022-08-26T16:11:28.049Z,100.00
2022-08-26T16:13:55.385Z,100.00
2022-08-26T16:16:22.392Z,100.00
2022-08-26T16:18:49.642Z,100.00
2022-08-26T16:21:23.167Z,100.00
2022-08-26T16:23:50.408Z,100.00
2022-08-26T16:26:26.019Z,100.00
2022-08-26T16:28:53.750Z,100.00
2022-08-26T16:31:21.595Z,100.00
2022-08-26T16:33:48.691Z,100.00
2022-08-26T16:36:16.331Z,100.00
2022-08-26T16:38:50.087Z,100.00
2022-08-26T16:41:17.700Z,100.00
2022-08-26T16:43:44.539Z,100.00
2022-08-26T16:46:14.095Z,100.00
2022-08-26T16:48:40.904Z,100.00
2022-08-26T16:51:13.673Z,100.00
2022-08-26T16:53:40.329Z,100.00
2022-08-26T16:56:07.304Z,100.00
2022-08-26T16:58:34.120Z,100.00
2022-08-26T17:01:01.277Z,100.00
2022-08-26T17:03:28.037Z,100.00
2022-08-26T17:05:54.682Z,100.00
2022-08-26T17:08:24.256Z,100.00
2022-08-26T17:10:55.745Z,100.00
2022-08-26T17:13:25.986Z,100.00
2022-08-26T17:16:04.210Z,100.00
2022-08-26T17:18:31.596Z,100.00
2022-08-26T17:21:02.672Z,100.00
2022-08-26T17:23:29.457Z,100.00
2022-08-26T17:25:56.086Z,100.00
2022-08-26T17:28:22.911Z,100.00
2022-08-26T17:30:49.650Z,100.00
2022-08-26T17:33:17.161Z,100.00
2022-08-26T17:35:48.872Z,100.00
2022-08-26T17:38:15.507Z,100.00
2022-08-26T17:40:42.177Z,100.00
2022-08-26T17:43:12.232Z,100.00
2022-08-26T17:45:40.530Z,100.00
2022-08-26T17:48:08.145Z,100.00
2022-08-26T17:50:35.364Z,100.00
2022-08-26T17:53:02.054Z,100.00
2022-08-26T17:55:29.213Z,100.00
2022-08-26T17:57:55.888Z,100.00
2022-08-26T18:00:26.478Z,100.00
2022-08-26T18:02:54.880Z,100.00
2022-08-26T18:05:22.329Z,100.00
2022-08-26T18:07:49.035Z,100.00
2022-08-26T18:10:18.475Z,100.00
2022-08-26T18:12:45.667Z,100.00
2022-08-26T18:15:14.463Z,100.00
2022-08-26T18:17:41.849Z,100.00
2022-08-26T18:20:11.573Z,100.00
2022-08-26T18:22:38.276Z,100.00
2022-08-26T18:25:07.737Z,100.00
2022-08-26T18:27:36.174Z,100.00
2022-08-26T18:30:06.633Z,100.00
2022-08-26T18:32:33.284Z,100.00
2022-08-26T18:34:59.980Z,100.00
2022-08-26T18:37:29.477Z,100.00
2022-08-26T18:39:59.591Z,100.00
2022-08-26T18:42:27.275Z,100.00
2022-08-26T18:44:53.964Z,100.00
2022-08-26T18:47:20.875Z,100.00
2022-08-26T18:49:48.610Z,100.00
2022-08-26T18:52:15.538Z,100.00
2022-08-26T18:54:42.411Z,100.00
2022-08-26T18:57:09.255Z,100.00
2022-08-26T18:59:35.916Z,100.00
2022-08-26T19:02:02.749Z,100.00
2022-08-26T19:04:29.650Z,100.00
2022-08-26T19:06:56.888Z,100.00
2022-08-26T19:09:26.316Z,100.00
2022-08-26T19:11:53.827Z,100.00
2022-08-26T19:14:20.540Z,100.00
2022-08-26T19:16:49.086Z,100.00
2022-08-26T19:19:16.233Z,100.00
2022-08-26T19:21:43.287Z,100.00
2022-08-26T19:24:15.459Z,100.00
2022-08-26T19:26:44.397Z,100.00
2022-08-26T19:29:11.844Z,100.00
2022-08-26T19:31:38.485Z,100.00
2022-08-26T19:34:05.852Z,100.00
2022-08-26T19:36:33.112Z,100.00
2022-08-26T19:39:03.017Z,100.00
2022-08-26T19:41:37.408Z,100.00
2022-08-26T19:44:34.803Z,100.00
2022-08-26T19:47:03.579Z,100.00
2022-08-26T19:49:31.028Z,100.00
2022-08-26T19:51:58.133Z,100.00
2022-08-26T19:54:25.554Z,100.00
2022-08-26T19:56:52.228Z,100.00
2022-08-26T19:59:18.933Z,100.00
2022-08-26T20:01:45.624Z,100.00
2022-08-26T20:04:12.532Z,100.00
2022-08-26T20:06:39.804Z,100.00
2022-08-26T20:09:06.765Z,100.00
2022-08-26T20:11:33.516Z,100.00
2022-08-26T20:14:00.473Z,100.00
2022-08-26T20:16:27.202Z,100.00
2022-08-26T20:19:29.256Z,100.00
2022-08-26T20:21:55.923Z,100.00
2022-08-26T20:24:27.260Z,100.00
2022-08-26T20:26:54.181Z,100.00
2022-08-26T20:29:21.611Z,100.00
2022-08-26T20:31:49.215Z,100.00
2022-08-26T20:34:18.686Z,100.00
2022-08-26T20:36:47.563Z,100.00
2022-08-26T20:39:15.269Z,100.00
2022-08-26T20:41:43.966Z,100.00
2022-08-26T20:44:10.623Z,100.00
2022-08-26T20:46:37.580Z,100.00
2022-08-26T20:49:05.900Z,100.00
2022-08-26T20:51:35.307Z,100.00
2022-08-26T20:54:02.124Z,100.00
2022-08-26T20:56:28.822Z,100.00
2022-08-26T20:58:58.771Z,100.00
2022-08-26T21:01:30.568Z,100.00
2022-08-26T21:03:57.701Z,100.00
2022-08-26T21:06:24.960Z,100.00
2022-08-26T21:08:51.882Z,100.00
2022-08-26T21:11:19.830Z,100.00
2022-08-26T21:16:36.229Z,100.00
2022-08-26T21:19:08.139Z,100.00
2022-08-26T21:21:35.424Z,100.00
2022-08-26T21:24:03.114Z,100.00
2022-08-26T21:26:30.266Z,100.00
2022-08-26T21:28:57.002Z,100.00
2022-08-26T21:31:25.300Z,100.00
2022-08-26T21:33:52.776Z,100.00
2022-08-26T21:36:20.399Z,100.00
2022-08-26T21:38:47.290Z,100.00
2022-08-26T21:41:24.426Z,100.00
2022-08-26T21:43:55.310Z,100.00
2022-08-26T21:46:23.852Z,100.00
2022-08-26T21:49:02.745Z,100.00
2022-08-26T21:51:32.919Z,100.00
2022-08-26T21:54:01.456Z,100.00
2022-08-26T21:56:31.658Z,100.00
2022-08-26T21:58:59.733Z,100.00
2022-08-26T22:01:32.648Z,100.00
2022-08-26T22:03:59.472Z,100.00
2022-08-26T22:06:27.863Z,100.00
2022-08-26T22:08:55.338Z,100.00
2022-08-26T22:11:22.947Z,100.00
2022-08-26T22:13:50.846Z,100.00
2022-08-26T22:16:19.254Z,100.00
2022-08-26T22:18:46.375Z,100.00
2022-08-26T22:21:19.809Z,100.00
2022-08-26T22:23:47.116Z,100.00
2022-08-26T22:26:25.387Z,100.00
2022-08-26T22:28:55.578Z,100.00
2022-08-26T22:31:28.161Z,100.00
2022-08-26T22:34:06.472Z,100.00
2022-08-26T22:36:35.030Z,100.00
2022-08-26T22:39:04.843Z,100.00
2022-08-26T22:41:32.622Z,100.00
2022-08-26T22:44:02.769Z,100.00
2022-08-26T22:46:30.130Z,100.00
2022-08-26T22:48:56.904Z,100.00
2022-08-26T22:51:23.704Z,100.00
2022-08-26T22:53:50.481Z,100.00
2022-08-26T22:56:19.167Z,100.00
2022-08-26T22:58:46.089Z,100.00
2022-08-26T23:01:13.461Z,100.00
2022-08-26T23:03:40.338Z,100.00
2022-08-26T23:06:10.216Z,100.00
2022-08-26T23:08:38.603Z,100.00
2022-08-26T23:11:10.350Z,100.00
2022-08-26T23:13:38.054Z,100.00
2022-08-26T23:16:09.384Z,100.00
2022-08-26T23:18:36.758Z,100.00
2022-08-26T23:21:03.760Z,100.00
2022-08-26T23:23:31.192Z,100.00
2022-08-26T23:25:58.450Z,100.00
2022-08-26T23:28:26.509Z,100.00
2022-08-26T23:30:53.972Z,100.00
2022-08-26T23:33:20.983Z,100.00
2022-08-26T23:35:47.728Z,100.00
2022-08-26T23:38:15.011Z,100.00
2022-08-26T23:40:42.019Z,100.00
2022-08-26T23:43:14.414Z,100.00
2022-08-26T23:45:41.227Z,100.00
2022-08-26T23:48:08.022Z,100.00
2022-08-26T23:50:53.419Z,100.00
2022-08-26T23:53:22.500Z,100.00
2022-08-26T23:55:52.035Z,100.00
2022-08-26T23:58:20.439Z,100.00
